sensor_id;sensor_type;location;lat;lon;timestamp;pressure;altitude;pressure_sealevel;temperature;humidity
20455;BME280;10386;54.314;10.022;2023-04-25T00:01:23;99882.91;;;7.63;100.00
20455;BME280;10386;54.314;10.022;2023-04-25T00:03:50;99889.09;;;7.65;100.00
20455;BME280;10386;54.314;10.022;2023-04-25T00:06:18;99884.19;;;7.70;100.00
20455;BME280;10386;54.314;10.022;2023-04-25T00:08:44;99886.25;;;7.67;100.00
20455;BME280;10386;54.314;10.022;2023-04-25T00:11:12;99893.09;;;7.60;100.00
20455;BME280;10386;54.314;10.022;2023-04-25T00:13:38;99899.56;;;7.57;100.00
20455;BME280;10386;54.314;10.022;2023-04-25T00:16:08;99910.06;;;7.49;100.00
20455;BME280;10386;54.314;10.022;2023-04-25T00:18:35;99915.00;;;7.55;100.00
20455;BME280;10386;54.314;10.022;2023-04-25T00:21:02;99922.59;;;7.50;100.00
20455;BME280;10386;54.314;10.022;2023-04-25T00:23:29;99931.56;;;7.51;100.00
20455;BME280;10386;54.314;10.022;2023-04-25T00:25:56;99932.84;;;7.58;100.00
20455;BME280;10386;54.314;10.022;2023-04-25T00:28:22;99946.44;;;7.56;100.00
20455;BME280;10386;54.314;10.022;2023-04-25T00:30:49;99945.38;;;7.59;100.00
20455;BME280;10386;54.314;10.022;2023-04-25T00:33:16;99958.22;;;7.55;100.00
20455;BME280;10386;54.314;10.022;2023-04-25T00:35:43;99967.75;;;7.48;100.00
20455;BME280;10386;54.314;10.022;2023-04-25T00:38:10;99971.09;;;7.52;100.00
20455;BME280;10386;54.314;10.022;2023-04-25T00:40:36;99976.38;;;7.53;100.00
20455;BME280;10386;54.314;10.022;2023-04-25T00:43:04;99990.97;;;7.38;100.00
20455;BME280;10386;54.314;10.022;2023-04-25T00:45:31;100000.63;;;7.30;100.00
20455;BME280;10386;54.314;10.022;2023-04-25T00:47:57;100002.44;;;7.29;100.00
20455;BME280;10386;54.314;10.022;2023-04-25T00:50:24;100010.53;;;7.29;100.00
20455;BME280;10386;54.314;10.022;2023-04-25T00:52:51;100022.09;;;7.31;100.00
20455;BME280;10386;54.314;10.022;2023-04-25T00:55:19;100023.81;;;7.32;100.00
20455;BME280;10386;54.314;10.022;2023-04-25T00:57:46;100030.53;;;7.27;100.00
20455;BME280;10386;54.314;10.022;2023-04-25T01:00:13;100036.03;;;7.25;100.00
20455;BME280;10386;54.314;10.022;2023-04-25T01:02:41;100042.50;;;7.35;100.00
20455;BME280;10386;54.314;10.022;2023-04-25T01:05:09;100055.59;;;7.29;100.00
20455;BME280;10386;54.314;10.022;2023-04-25T01:07:36;100053.84;;;7.28;100.00
20455;BME280;10386;54.314;10.022;2023-04-25T01:10:04;100063.22;;;7.22;100.00
20455;BME280;10386;54.314;10.022;2023-04-25T01:12:31;100070.06;;;7.28;100.00
20455;BME280;10386;54.314;10.022;2023-04-25T01:14:58;100078.25;;;7.26;100.00
20455;BME280;10386;54.314;10.022;2023-04-25T01:17:25;100083.09;;;7.21;100.00
20455;BME280;10386;54.314;10.022;2023-04-25T01:19:52;100091.06;;;7.10;100.00
20455;BME280;10386;54.314;10.022;2023-04-25T01:22:19;100097.22;;;7.12;100.00
20455;BME280;10386;54.314;10.022;2023-04-25T01:24:46;100100.97;;;7.10;100.00
20455;BME280;10386;54.314;10.022;2023-04-25T01:27:13;100108.03;;;7.12;100.00
20455;BME280;10386;54.314;10.022;2023-04-25T01:33:40;100130.88;;;7.07;100.00
20455;BME280;10386;54.314;10.022;2023-04-25T01:36:06;100133.50;;;7.08;100.00
20455;BME280;10386;54.314;10.022;2023-04-25T01:38:33;100139.72;;;6.96;100.00
20455;BME280;10386;54.314;10.022;2023-04-25T01:41:00;100156.41;;;6.89;100.00
20455;BME280;10386;54.314;10.022;2023-04-25T01:43:27;100162.34;;;6.82;100.00
20455;BME280;10386;54.314;10.022;2023-04-25T01:45:54;100178.81;;;6.77;100.00
20455;BME280;10386;54.314;10.022;2023-04-25T01:48:22;100186.34;;;6.72;100.00
20455;BME280;10386;54.314;10.022;2023-04-25T01:50:48;100191.88;;;6.57;100.00
20455;BME280;10386;54.314;10.022;2023-04-25T01:53:15;100193.41;;;6.61;100.00
20455;BME280;10386;54.314;10.022;2023-04-25T01:55:42;100199.88;;;6.58;100.00
20455;BME280;10386;54.314;10.022;2023-04-25T01:58:09;100205.53;;;6.54;100.00
20455;BME280;10386;54.314;10.022;2023-04-25T02:00:36;100211.03;;;6.66;100.00
20455;BME280;10386;54.314;10.022;2023-04-25T02:03:07;100213.16;;;6.61;100.00
20455;BME280;10386;54.314;10.022;2023-04-25T02:05:36;100228.38;;;6.62;100.00
20455;BME280;10386;54.314;10.022;2023-04-25T02:08:07;100229.41;;;6.60;100.00
20455;BME280;10386;54.314;10.022;2023-04-25T02:14:34;100240.63;;;6.40;100.00
20455;BME280;10386;54.314;10.022;2023-04-25T02:17:01;100239.84;;;6.38;100.00
20455;BME280;10386;54.314;10.022;2023-04-25T02:19:27;100246.13;;;6.38;100.00
20455;BME280;10386;54.314;10.022;2023-04-25T02:21:54;100252.84;;;6.31;100.00
20455;BME280;10386;54.314;10.022;2023-04-25T02:24:21;100259.78;;;6.21;100.00
20455;BME280;10386;54.314;10.022;2023-04-25T02:26:48;100269.00;;;6.31;100.00
20455;BME280;10386;54.314;10.022;2023-04-25T02:29:16;100256.41;;;6.32;100.00
20455;BME280;10386;54.314;10.022;2023-04-25T02:31:42;100270.16;;;6.27;100.00
20455;BME280;10386;54.314;10.022;2023-04-25T02:34:09;100275.09;;;6.35;100.00
20455;BME280;10386;54.314;10.022;2023-04-25T02:36:36;100277.41;;;6.41;100.00
20455;BME280;10386;54.314;10.022;2023-04-25T02:39:03;100272.00;;;6.41;100.00
20455;BME280;10386;54.314;10.022;2023-04-25T02:41:30;100282.59;;;6.30;100.00
20455;BME280;10386;54.314;10.022;2023-04-25T02:43:57;100277.78;;;6.35;100.00
20455;BME280;10386;54.314;10.022;2023-04-25T02:46:23;100285.75;;;6.36;100.00
20455;BME280;10386;54.314;10.022;2023-04-25T02:49:04;100294.53;;;6.26;100.00
20455;BME280;10386;54.314;10.022;2023-04-25T02:51:31;100290.09;;;6.25;100.00
20455;BME280;10386;54.314;10.022;2023-04-25T02:53:59;100301.53;;;6.28;100.00
20455;BME280;10386;54.314;10.022;2023-04-25T02:56:25;100305.88;;;6.31;100.00
20455;BME280;10386;54.314;10.022;2023-04-25T02:58:53;100307.91;;;6.27;100.00
20455;BME280;10386;54.314;10.022;2023-04-25T03:01:20;100314.75;;;6.33;100.00
20455;BME280;10386;54.314;10.022;2023-04-25T03:03:47;100313.41;;;6.26;100.00
20455;BME280;10386;54.314;10.022;2023-04-25T03:06:14;100326.28;;;6.21;100.00
20455;BME280;10386;54.314;10.022;2023-04-25T03:08:42;100330.53;;;6.25;100.00
20455;BME280;10386;54.314;10.022;2023-04-25T03:11:09;100331.31;;;6.27;100.00
20455;BME280;10386;54.314;10.022;2023-04-25T03:22:06;100363.72;;;6.25;100.00
20455;BME280;10386;54.314;10.022;2023-04-25T03:25:48;100370.44;;;6.18;100.00
20455;BME280;10386;54.314;10.022;2023-04-25T03:30:02;100374.44;;;6.27;100.00
20455;BME280;10386;54.314;10.022;2023-04-25T03:34:35;100417.38;;;6.30;100.00
20455;BME280;10386;54.314;10.022;2023-04-25T03:38:36;100433.72;;;6.27;100.00
20455;BME280;10386;54.314;10.022;2023-04-25T03:46:44;100465.00;;;6.29;100.00
20455;BME280;10386;54.314;10.022;2023-04-25T03:49:11;100481.91;;;6.17;100.00
20455;BME280;10386;54.314;10.022;2023-04-25T03:51:37;100474.50;;;6.21;100.00
20455;BME280;10386;54.314;10.022;2023-04-25T03:54:04;100490.31;;;6.27;100.00
20455;BME280;10386;54.314;10.022;2023-04-25T03:56:31;100492.00;;;6.14;100.00
20455;BME280;10386;54.314;10.022;2023-04-25T03:58:57;100498.19;;;6.16;100.00
20455;BME280;10386;54.314;10.022;2023-04-25T04:01:24;100508.50;;;6.23;100.00
20455;BME280;10386;54.314;10.022;2023-04-25T04:03:51;100509.81;;;6.16;100.00
20455;BME280;10386;54.314;10.022;2023-04-25T04:06:19;100520.50;;;6.18;100.00
20455;BME280;10386;54.314;10.022;2023-04-25T04:08:47;100511.28;;;6.22;100.00
20455;BME280;10386;54.314;10.022;2023-04-25T04:11:13;100515.47;;;6.12;100.00
20455;BME280;10386;54.314;10.022;2023-04-25T04:13:40;100516.44;;;6.11;100.00
20455;BME280;10386;54.314;10.022;2023-04-25T04:16:07;100512.13;;;6.22;100.00
20455;BME280;10386;54.314;10.022;2023-04-25T04:18:34;100525.13;;;6.16;100.00
20455;BME280;10386;54.314;10.022;2023-04-25T04:21:01;100525.97;;;6.16;100.00
20455;BME280;10386;54.314;10.022;2023-04-25T04:23:27;100534.75;;;6.20;100.00
20455;BME280;10386;54.314;10.022;2023-04-25T04:25:54;100540.75;;;6.25;100.00
20455;BME280;10386;54.314;10.022;2023-04-25T04:28:21;100542.38;;;6.27;100.00
20455;BME280;10386;54.314;10.022;2023-04-25T04:30:48;100550.75;;;6.23;100.00
20455;BME280;10386;54.314;10.022;2023-04-25T04:33:17;100558.31;;;6.32;100.00
20455;BME280;10386;54.314;10.022;2023-04-25T04:35:47;100563.88;;;6.29;100.00
20455;BME280;10386;54.314;10.022;2023-04-25T04:38:14;100569.28;;;6.29;100.00
20455;BME280;10386;54.314;10.022;2023-04-25T04:40:42;100568.31;;;6.30;100.00
20455;BME280;10386;54.314;10.022;2023-04-25T04:43:09;100575.25;;;6.34;100.00
20455;BME280;10386;54.314;10.022;2023-04-25T04:45:36;100577.59;;;6.40;100.00
20455;BME280;10386;54.314;10.022;2023-04-25T04:48:05;100578.03;;;6.32;100.00
20455;BME280;10386;54.314;10.022;2023-04-25T04:50:32;100582.56;;;6.32;100.00
20455;BME280;10386;54.314;10.022;2023-04-25T04:53:00;100584.84;;;6.39;100.00
20455;BME280;10386;54.314;10.022;2023-04-25T04:55:27;100581.06;;;6.42;100.00
20455;BME280;10386;54.314;10.022;2023-04-25T04:57:53;100588.19;;;6.43;100.00
20455;BME280;10386;54.314;10.022;2023-04-25T05:00:20;100596.13;;;6.30;100.00
20455;BME280;10386;54.314;10.022;2023-04-25T05:02:47;100607.44;;;6.37;100.00
20455;BME280;10386;54.314;10.022;2023-04-25T05:05:14;100597.69;;;6.34;100.00
20455;BME280;10386;54.314;10.022;2023-04-25T05:07:41;100607.59;;;6.49;100.00
20455;BME280;10386;54.314;10.022;2023-04-25T05:10:08;100616.72;;;6.47;100.00
20455;BME280;10386;54.314;10.022;2023-04-25T05:12:35;100618.75;;;6.43;100.00
20455;BME280;10386;54.314;10.022;2023-04-25T05:15:02;100614.81;;;6.33;100.00
20455;BME280;10386;54.314;10.022;2023-04-25T05:17:29;100619.59;;;6.44;100.00
20455;BME280;10386;54.314;10.022;2023-04-25T05:19:56;100614.03;;;6.47;100.00
20455;BME280;10386;54.314;10.022;2023-04-25T05:22:23;100624.47;;;6.53;100.00
20455;BME280;10386;54.314;10.022;2023-04-25T05:25:04;100626.56;;;6.48;100.00
20455;BME280;10386;54.314;10.022;2023-04-25T05:27:31;100634.38;;;6.52;100.00
20455;BME280;10386;54.314;10.022;2023-04-25T05:29:57;100641.69;;;6.50;100.00
20455;BME280;10386;54.314;10.022;2023-04-25T05:32:24;100641.34;;;6.56;100.00
20455;BME280;10386;54.314;10.022;2023-04-25T05:34:52;100647.94;;;6.51;100.00
20455;BME280;10386;54.314;10.022;2023-04-25T05:37:18;100649.50;;;6.55;100.00
20455;BME280;10386;54.314;10.022;2023-04-25T05:39:45;100656.28;;;6.62;100.00
20455;BME280;10386;54.314;10.022;2023-04-25T05:42:12;100654.03;;;6.54;100.00
20455;BME280;10386;54.314;10.022;2023-04-25T05:44:39;100666.53;;;6.71;100.00
20455;BME280;10386;54.314;10.022;2023-04-25T05:47:05;100664.97;;;6.67;100.00
20455;BME280;10386;54.314;10.022;2023-04-25T05:49:34;100654.97;;;6.69;100.00
20455;BME280;10386;54.314;10.022;2023-04-25T05:52:01;100660.66;;;6.64;100.00
20455;BME280;10386;54.314;10.022;2023-04-25T05:54:27;100658.44;;;6.71;100.00
20455;BME280;10386;54.314;10.022;2023-04-25T05:56:56;100666.28;;;6.75;100.00
20455;BME280;10386;54.314;10.022;2023-04-25T05:59:23;100664.72;;;6.71;100.00
20455;BME280;10386;54.314;10.022;2023-04-25T06:01:50;100669.75;;;6.77;100.00
20455;BME280;10386;54.314;10.022;2023-04-25T06:04:18;100668.28;;;6.72;100.00
20455;BME280;10386;54.314;10.022;2023-04-25T06:06:46;100674.19;;;6.78;100.00
20455;BME280;10386;54.314;10.022;2023-04-25T06:09:12;100671.56;;;6.77;100.00
20455;BME280;10386;54.314;10.022;2023-04-25T06:11:40;100667.59;;;6.83;100.00
20455;BME280;10386;54.314;10.022;2023-04-25T06:14:06;100671.28;;;6.96;100.00
20455;BME280;10386;54.314;10.022;2023-04-25T06:16:36;100671.47;;;6.93;100.00
20455;BME280;10386;54.314;10.022;2023-04-25T06:19:03;100674.47;;;7.03;100.00
20455;BME280;10386;54.314;10.022;2023-04-25T06:21:29;100669.19;;;7.01;100.00
20455;BME280;10386;54.314;10.022;2023-04-25T06:23:57;100671.06;;;7.15;100.00
20455;BME280;10386;54.314;10.022;2023-04-25T06:26:24;100673.03;;;7.27;100.00
20455;BME280;10386;54.314;10.022;2023-04-25T06:28:51;100664.00;;;7.42;100.00
20455;BME280;10386;54.314;10.022;2023-04-25T06:31:17;100673.44;;;7.35;100.00
20455;BME280;10386;54.314;10.022;2023-04-25T06:33:44;100669.50;;;7.54;100.00
20455;BME280;10386;54.314;10.022;2023-04-25T06:36:11;100664.88;;;7.56;100.00
20455;BME280;10386;54.314;10.022;2023-04-25T06:38:38;100660.19;;;7.60;100.00
20455;BME280;10386;54.314;10.022;2023-04-25T06:41:04;100670.78;;;7.63;100.00
20455;BME280;10386;54.314;10.022;2023-04-25T06:43:31;100658.31;;;7.46;100.00
20455;BME280;10386;54.314;10.022;2023-04-25T06:45:59;100671.13;;;7.29;100.00
20455;BME280;10386;54.314;10.022;2023-04-25T06:48:27;100672.09;;;7.28;100.00
20455;BME280;10386;54.314;10.022;2023-04-25T06:50:54;100690.97;;;7.28;100.00
20455;BME280;10386;54.314;10.022;2023-04-25T06:53:20;100689.69;;;7.19;100.00
20455;BME280;10386;54.314;10.022;2023-04-25T06:55:47;100686.03;;;7.20;100.00
20455;BME280;10386;54.314;10.022;2023-04-25T06:58:14;100685.88;;;7.08;100.00
20455;BME280;10386;54.314;10.022;2023-04-25T07:00:40;100708.66;;;7.18;100.00
20455;BME280;10386;54.314;10.022;2023-04-25T07:03:07;100701.78;;;7.28;100.00
20455;BME280;10386;54.314;10.022;2023-04-25T07:05:35;100707.59;;;7.36;100.00
20455;BME280;10386;54.314;10.022;2023-04-25T07:08:02;100714.81;;;7.35;100.00
20455;BME280;10386;54.314;10.022;2023-04-25T07:10:29;100705.47;;;7.41;100.00
20455;BME280;10386;54.314;10.022;2023-04-25T07:12:56;100710.66;;;7.30;100.00
20455;BME280;10386;54.314;10.022;2023-04-25T07:15:23;100717.09;;;7.27;100.00
20455;BME280;10386;54.314;10.022;2023-04-25T07:17:49;100719.97;;;7.24;100.00
20455;BME280;10386;54.314;10.022;2023-04-25T07:20:16;100717.47;;;7.06;100.00
20455;BME280;10386;54.314;10.022;2023-04-25T07:22:43;100713.94;;;6.90;100.00
20455;BME280;10386;54.314;10.022;2023-04-25T07:25:10;100727.19;;;6.94;100.00
20455;BME280;10386;54.314;10.022;2023-04-25T07:27:37;100718.56;;;7.03;100.00
20455;BME280;10386;54.314;10.022;2023-04-25T07:30:04;100717.19;;;6.96;100.00
20455;BME280;10386;54.314;10.022;2023-04-25T07:32:31;100715.13;;;7.15;100.00
20455;BME280;10386;54.314;10.022;2023-04-25T07:34:58;100719.03;;;7.10;100.00
20455;BME280;10386;54.314;10.022;2023-04-25T07:37:24;100718.16;;;7.25;100.00
20455;BME280;10386;54.314;10.022;2023-04-25T07:39:52;100727.88;;;7.43;100.00
20455;BME280;10386;54.314;10.022;2023-04-25T07:42:19;100720.19;;;7.65;100.00
20455;BME280;10386;54.314;10.022;2023-04-25T07:44:46;100717.72;;;7.90;100.00
20455;BME280;10386;54.314;10.022;2023-04-25T07:47:13;100721.28;;;7.90;100.00
20455;BME280;10386;54.314;10.022;2023-04-25T07:49:40;100710.69;;;8.15;100.00
20455;BME280;10386;54.314;10.022;2023-04-25T07:52:07;100712.50;;;8.56;100.00
20455;BME280;10386;54.314;10.022;2023-04-25T07:54:34;100703.19;;;8.74;100.00
20455;BME280;10386;54.314;10.022;2023-04-25T07:57:01;100697.59;;;9.04;100.00
20455;BME280;10386;54.314;10.022;2023-04-25T07:59:29;100685.72;;;8.66;100.00
20455;BME280;10386;54.314;10.022;2023-04-25T08:01:55;100688.94;;;8.58;100.00
20455;BME280;10386;54.314;10.022;2023-04-25T08:04:24;100687.81;;;8.34;100.00
20455;BME280;10386;54.314;10.022;2023-04-25T08:06:52;100689.66;;;8.20;100.00
20455;BME280;10386;54.314;10.022;2023-04-25T08:09:20;100697.00;;;8.18;100.00
20455;BME280;10386;54.314;10.022;2023-04-25T08:11:47;100711.72;;;7.99;100.00
20455;BME280;10386;54.314;10.022;2023-04-25T08:14:14;100711.13;;;7.80;100.00
20455;BME280;10386;54.314;10.022;2023-04-25T08:16:40;100707.28;;;7.84;100.00
20455;BME280;10386;54.314;10.022;2023-04-25T08:19:09;100694.94;;;7.80;100.00
20455;BME280;10386;54.314;10.022;2023-04-25T08:21:37;100704.50;;;7.85;100.00
20455;BME280;10386;54.314;10.022;2023-04-25T08:24:04;100704.31;;;8.02;100.00
20455;BME280;10386;54.314;10.022;2023-04-25T08:26:31;100698.25;;;8.13;100.00
20455;BME280;10386;54.314;10.022;2023-04-25T08:28:58;100697.38;;;8.26;100.00
20455;BME280;10386;54.314;10.022;2023-04-25T08:31:25;100714.66;;;8.51;100.00
20455;BME280;10386;54.314;10.022;2023-04-25T08:33:52;100707.00;;;8.58;100.00
20455;BME280;10386;54.314;10.022;2023-04-25T08:36:19;100708.72;;;8.73;100.00
20455;BME280;10386;54.314;10.022;2023-04-25T08:39:03;100687.47;;;8.67;100.00
20455;BME280;10386;54.314;10.022;2023-04-25T08:41:30;100696.75;;;8.63;100.00
20455;BME280;10386;54.314;10.022;2023-04-25T08:43:59;100716.50;;;8.51;100.00
20455;BME280;10386;54.314;10.022;2023-04-25T08:46:27;100724.31;;;8.55;100.00
20455;BME280;10386;54.314;10.022;2023-04-25T08:49:00;100738.59;;;8.16;100.00
20455;BME280;10386;54.314;10.022;2023-04-25T08:51:30;100759.13;;;8.20;100.00
20455;BME280;10386;54.314;10.022;2023-04-25T08:54:08;100748.66;;;8.14;100.00
20455;BME280;10386;54.314;10.022;2023-04-25T08:56:57;100764.53;;;8.20;100.00
20455;BME280;10386;54.314;10.022;2023-04-25T08:59:26;100778.50;;;8.26;100.00
20455;BME280;10386;54.314;10.022;2023-04-25T09:01:53;100767.06;;;8.07;100.00
20455;BME280;10386;54.314;10.022;2023-04-25T09:04:21;100814.25;;;8.45;100.00
20455;BME280;10386;54.314;10.022;2023-04-25T09:06:48;100803.16;;;8.35;100.00
20455;BME280;10386;54.314;10.022;2023-04-25T09:09:15;100812.69;;;8.27;100.00
20455;BME280;10386;54.314;10.022;2023-04-25T09:11:42;100837.03;;;8.27;100.00
20455;BME280;10386;54.314;10.022;2023-04-25T09:19:37;100825.19;;;8.57;100.00
20455;BME280;10386;54.314;10.022;2023-04-25T09:22:08;100820.22;;;8.92;100.00
20455;BME280;10386;54.314;10.022;2023-04-25T09:24:39;100816.69;;;9.18;100.00
20455;BME280;10386;54.314;10.022;2023-04-25T09:27:09;100770.19;;;8.71;100.00
20455;BME280;10386;54.314;10.022;2023-04-25T09:29:39;100788.59;;;9.06;100.00
20455;BME280;10386;54.314;10.022;2023-04-25T09:32:12;100792.06;;;9.35;100.00
20455;BME280;10386;54.314;10.022;2023-04-25T09:34:44;100788.94;;;9.14;100.00
20455;BME280;10386;54.314;10.022;2023-04-25T09:37:11;100797.31;;;9.24;100.00
20455;BME280;10386;54.314;10.022;2023-04-25T09:39:39;100799.59;;;9.17;100.00
20455;BME280;10386;54.314;10.022;2023-04-25T09:42:05;100809.88;;;8.98;100.00
20455;BME280;10386;54.314;10.022;2023-04-25T09:44:32;100815.19;;;9.00;100.00
20455;BME280;10386;54.314;10.022;2023-04-25T09:46:59;100838.63;;;9.27;100.00
20455;BME280;10386;54.314;10.022;2023-04-25T09:49:26;100832.06;;;9.57;100.00
20455;BME280;10386;54.314;10.022;2023-04-25T09:51:57;100820.94;;;9.74;100.00
20455;BME280;10386;54.314;10.022;2023-04-25T09:54:25;100819.34;;;9.84;100.00
20455;BME280;10386;54.314;10.022;2023-04-25T09:56:53;100796.91;;;9.56;100.00
20455;BME280;10386;54.314;10.022;2023-04-25T09:59:21;100781.22;;;9.08;100.00
20455;BME280;10386;54.314;10.022;2023-04-25T10:01:50;100787.78;;;8.64;100.00
20455;BME280;10386;54.314;10.022;2023-04-25T10:04:19;100794.25;;;8.33;100.00
20455;BME280;10386;54.314;10.022;2023-04-25T10:06:49;100828.03;;;8.13;100.00
20455;BME280;10386;54.314;10.022;2023-04-25T10:09:20;100895.47;;;8.00;100.00
20455;BME280;10386;54.314;10.022;2023-04-25T10:11:47;100914.59;;;7.82;100.00
20455;BME280;10386;54.314;10.022;2023-04-25T10:14:14;100940.41;;;7.87;100.00
20455;BME280;10386;54.314;10.022;2023-04-25T10:16:42;100938.97;;;8.98;100.00
20455;BME280;10386;54.314;10.022;2023-04-25T10:19:10;100942.81;;;9.22;100.00
20455;BME280;10386;54.314;10.022;2023-04-25T10:21:46;100909.84;;;8.87;100.00
20455;BME280;10386;54.314;10.022;2023-04-25T10:24:14;100919.63;;;8.90;100.00
20455;BME280;10386;54.314;10.022;2023-04-25T10:26:42;100930.97;;;8.96;100.00
20455;BME280;10386;54.314;10.022;2023-04-25T10:29:09;100915.47;;;8.27;100.00
20455;BME280;10386;54.314;10.022;2023-04-25T10:31:45;100937.69;;;8.32;100.00
20455;BME280;10386;54.314;10.022;2023-04-25T10:34:12;100942.88;;;8.21;100.00
20455;BME280;10386;54.314;10.022;2023-04-25T10:36:39;100947.06;;;8.56;100.00
20455;BME280;10386;54.314;10.022;2023-04-25T10:39:07;100945.41;;;8.81;100.00
20455;BME280;10386;54.314;10.022;2023-04-25T10:42:08;100934.63;;;9.09;100.00
20455;BME280;10386;54.314;10.022;2023-04-25T10:44:37;100919.44;;;9.07;100.00
20455;BME280;10386;54.314;10.022;2023-04-25T10:47:06;100918.94;;;9.28;100.00
20455;BME280;10386;54.314;10.022;2023-04-25T10:49:35;100911.78;;;9.13;100.00
20455;BME280;10386;54.314;10.022;2023-04-25T10:52:25;100919.34;;;9.08;100.00
20455;BME280;10386;54.314;10.022;2023-04-25T10:54:53;100940.84;;;9.92;100.00
20455;BME280;10386;54.314;10.022;2023-04-25T11:00:05;100879.09;;;9.83;100.00
20455;BME280;10386;54.314;10.022;2023-04-25T11:02:37;100878.34;;;9.93;100.00
20455;BME280;10386;54.314;10.022;2023-04-25T11:05:04;100866.13;;;9.61;100.00
20455;BME280;10386;54.314;10.022;2023-04-25T11:10:05;100900.19;;;8.69;100.00
20455;BME280;10386;54.314;10.022;2023-04-25T11:12:32;100961.31;;;7.37;100.00
20455;BME280;10386;54.314;10.022;2023-04-25T11:15:03;100994.53;;;7.07;100.00
20455;BME280;10386;54.314;10.022;2023-04-25T11:17:30;101000.94;;;7.21;100.00
20455;BME280;10386;54.314;10.022;2023-04-25T11:19:57;100992.09;;;7.35;100.00
20455;BME280;10386;54.314;10.022;2023-04-25T11:22:26;100989.81;;;7.58;100.00
20455;BME280;10386;54.314;10.022;2023-04-25T11:24:53;100997.41;;;7.98;100.00
20455;BME280;10386;54.314;10.022;2023-04-25T11:27:20;100997.22;;;8.17;100.00
20455;BME280;10386;54.314;10.022;2023-04-25T11:29:47;100994.59;;;8.60;100.00
20455;BME280;10386;54.314;10.022;2023-04-25T11:32:15;100977.25;;;8.78;100.00
20455;BME280;10386;54.314;10.022;2023-04-25T11:34:44;100969.72;;;9.25;100.00
20455;BME280;10386;54.314;10.022;2023-04-25T11:37:14;100949.59;;;9.69;100.00
20455;BME280;10386;54.314;10.022;2023-04-25T11:39:45;100945.44;;;9.23;100.00
20455;BME280;10386;54.314;10.022;2023-04-25T11:42:14;100942.31;;;9.43;100.00
20455;BME280;10386;54.314;10.022;2023-04-25T11:44:41;100953.19;;;9.29;100.00
20455;BME280;10386;54.314;10.022;2023-04-25T11:47:08;100935.47;;;9.10;100.00
20455;BME280;10386;54.314;10.022;2023-04-25T11:49:35;100936.31;;;8.68;100.00
20455;BME280;10386;54.314;10.022;2023-04-25T11:52:02;100950.09;;;8.50;100.00
20455;BME280;10386;54.314;10.022;2023-04-25T11:54:29;100976.56;;;8.00;100.00
20455;BME280;10386;54.314;10.022;2023-04-25T11:56:56;100996.38;;;7.85;100.00
20455;BME280;10386;54.314;10.022;2023-04-25T11:59:24;101030.88;;;7.65;100.00
20455;BME280;10386;54.314;10.022;2023-04-25T12:01:52;101023.66;;;7.17;100.00
20455;BME280;10386;54.314;10.022;2023-04-25T12:04:23;101043.41;;;7.18;100.00
20455;BME280;10386;54.314;10.022;2023-04-25T12:06:54;101050.25;;;7.25;100.00
20455;BME280;10386;54.314;10.022;2023-04-25T12:09:31;101059.38;;;7.55;100.00
20455;BME280;10386;54.314;10.022;2023-04-25T12:12:00;101051.97;;;8.05;100.00
20455;BME280;10386;54.314;10.022;2023-04-25T12:14:32;101047.44;;;8.51;100.00
20455;BME280;10386;54.314;10.022;2023-04-25T12:17:01;101052.84;;;8.81;100.00
20455;BME280;10386;54.314;10.022;2023-04-25T12:19:35;101058.34;;;8.79;100.00
20455;BME280;10386;54.314;10.022;2023-04-25T12:22:03;101069.63;;;8.27;100.00
20455;BME280;10386;54.314;10.022;2023-04-25T12:24:33;101058.78;;;7.65;100.00
20455;BME280;10386;54.314;10.022;2023-04-25T12:27:05;101045.53;;;7.61;100.00
20455;BME280;10386;54.314;10.022;2023-04-25T12:29:33;101054.94;;;7.85;100.00
20455;BME280;10386;54.314;10.022;2023-04-25T12:32:15;101046.06;;;7.98;100.00
20455;BME280;10386;54.314;10.022;2023-04-25T12:34:42;101048.16;;;8.39;100.00
20455;BME280;10386;54.314;10.022;2023-04-25T12:37:09;101042.56;;;8.72;100.00
20455;BME280;10386;54.314;10.022;2023-04-25T12:39:36;101045.16;;;9.17;100.00
20455;BME280;10386;54.314;10.022;2023-04-25T12:42:03;101032.78;;;9.27;100.00
20455;BME280;10386;54.314;10.022;2023-04-25T12:44:33;101021.81;;;8.86;100.00
20455;BME280;10386;54.314;10.022;2023-04-25T12:47:00;101038.34;;;8.52;100.00
20455;BME280;10386;54.314;10.022;2023-04-25T12:49:27;101034.91;;;7.89;100.00
20455;BME280;10386;54.314;10.022;2023-04-25T12:51:54;101030.06;;;7.47;100.00
20455;BME280;10386;54.314;10.022;2023-04-25T12:54:23;101031.72;;;7.34;100.00
20455;BME280;10386;54.314;10.022;2023-04-25T12:56:51;101037.06;;;7.51;100.00
20455;BME280;10386;54.314;10.022;2023-04-25T12:59:18;101037.19;;;7.65;100.00
20455;BME280;10386;54.314;10.022;2023-04-25T13:01:45;101046.41;;;8.38;100.00
20455;BME280;10386;54.314;10.022;2023-04-25T13:04:12;101027.31;;;8.71;100.00
20455;BME280;10386;54.314;10.022;2023-04-25T13:06:39;101002.31;;;8.95;100.00
20455;BME280;10386;54.314;10.022;2023-04-25T13:09:05;101009.75;;;9.06;100.00
20455;BME280;10386;54.314;10.022;2023-04-25T13:11:33;101010.53;;;9.22;100.00
20455;BME280;10386;54.314;10.022;2023-04-25T13:14:00;101008.50;;;9.39;100.00
20455;BME280;10386;54.314;10.022;2023-04-25T13:16:27;100983.06;;;9.28;100.00
20455;BME280;10386;54.314;10.022;2023-04-25T13:18:54;100992.72;;;9.59;100.00
20455;BME280;10386;54.314;10.022;2023-04-25T13:21:22;100979.19;;;9.46;100.00
20455;BME280;10386;54.314;10.022;2023-04-25T13:23:49;100977.84;;;9.53;100.00